Time;durP1;ratioP1;P1;durP2;ratioP2;P2;SDS_P1;SDS_P2;PMS_P1;PMS_P2;Temp;Humidity;BMP_temperature;BMP_pressure;BME280_temperature;BME280_humidity;BME280_pressure;Samples;Min_cycle;Max_cycle;Signal;HPM_P1;HPM_P2
2022/06/24 00:00:40;;;;;;;13.68;4.88;;;;;;;26.98;54.13;100639.16;5073543;28;20052;-77
2022/06/24 00:03:15;;;;;;;13.48;4.80;;;;;;;26.99;54.07;100644.41;5074593;28;20059;-77
2022/06/24 00:05:43;;;;;;;12.85;5.45;;;;;;;26.99;54.00;100641.69;5074482;28;20067;-76
2022/06/24 00:08:10;;;;;;;16.50;5.93;;;;;;;27.00;54.22;100646.09;5072295;28;20041;-77
2022/06/24 00:10:38;;;;;;;13.32;4.55;;;;;;;27.01;54.01;100639.63;5073306;28;20052;-77
2022/06/24 00:13:06;;;;;;;11.93;4.65;;;;;;;27.01;54.34;100645.06;5073997;28;20388;-77
2022/06/24 00:15:36;;;;;;;10.82;4.80;;;;;;;27.02;54.35;100644.06;5073764;28;20073;-76
2022/06/24 00:18:16;;;;;;;12.93;5.57;;;;;;;27.02;53.91;100641.34;5074478;28;20040;-76
2022/06/24 00:20:48;;;;;;;12.45;5.15;;;;;;;27.03;54.18;100639.47;5075013;28;20484;-76
2022/06/24 00:23:16;;;;;;;;;;;;;;;27.04;54.12;100641.13;5074784;28;20048;-76
2022/06/24 00:25:45;;;;;;;12.57;5.10;;;;;;;27.04;54.23;100644.69;5072815;28;20372;-75
2022/06/24 00:28:13;;;;;;;9.93;5.10;;;;;;;27.04;54.09;100641.13;5073667;28;20139;-75
2022/06/24 00:30:49;;;;;;;7.80;5.00;;;;;;;27.05;54.18;100634.66;5071592;28;20053;-75
2022/06/24 00:33:23;;;;;;;11.85;4.60;;;;;;;27.05;54.06;100632.78;5072293;28;20057;-75
2022/06/24 00:35:52;;;;;;;12.73;4.53;;;;;;;27.05;54.12;100635.50;5074048;28;20052;-75
2022/06/24 00:38:36;;;;;;;10.73;5.53;;;;;;;27.05;53.98;100621.91;5072744;28;20045;-75
2022/06/24 00:41:12;;;;;;;12.25;4.82;;;;;;;27.07;54.01;100629.91;5073296;28;20048;-75
2022/06/24 00:43:45;;;;;;;13.70;4.97;;;;;;;27.08;54.04;100626.16;5072760;28;20048;-75
2022/06/24 00:46:24;;;;;;;14.02;5.00;;;;;;;27.09;54.13;100619.66;5072126;28;20049;-75
2022/06/24 00:48:53;;;;;;;11.40;5.05;;;;;;;27.09;54.00;100619.66;5073719;28;20496;-75
2022/06/24 00:51:25;;;;;;;8.05;4.45;;;;;;;27.08;54.39;100615.28;5073862;28;20045;-75
2022/06/24 00:53:55;;;;;;;11.75;4.40;;;;;;;27.09;54.02;100623.22;5072676;28;20048;-75
2022/06/24 00:56:25;;;;;;;11.27;4.88;;;;;;;27.09;54.35;100615.06;5073405;28;20388;-75
2022/06/24 00:58:54;;;;;;;12.65;5.00;;;;;;;27.10;54.09;100624.09;5073959;28;20101;-75
2022/06/24 01:01:27;;;;;;;10.15;4.95;;;;;;;27.11;54.34;100614.94;5073273;28;20049;-76
2022/06/24 01:03:56;;;;;;;;;;;;;;;27.10;54.05;100611.38;5074513;28;20037;-75
2022/06/24 01:06:28;;;;;;;13.50;4.57;;;;;;;27.11;54.20;100612.22;5071413;28;20371;-76
2022/06/24 01:08:56;;;;;;;9.30;4.57;;;;;;;27.12;54.29;100608.47;5071229;28;20052;-76
2022/06/24 01:11:26;;;;;;;11.68;4.40;;;;;;;27.13;54.17;100610.13;5073583;28;20055;-76
2022/06/24 01:13:54;;;;;;;11.77;4.95;;;;;;;27.12;54.43;100603.03;5073944;28;20048;-76
2022/06/24 01:16:23;;;;;;;13.75;4.93;;;;;;;27.12;54.51;100605.75;5077469;28;20392;-76
2022/06/24 01:18:56;;;;;;;12.48;4.93;;;;;;;27.13;54.51;100601.16;5077576;28;20071;-76
2022/06/24 01:21:32;;;;;;;9.70;4.43;;;;;;;27.14;54.27;100603.66;5077394;28;20048;-76
2022/06/24 01:24:10;;;;;;;9.90;5.20;;;;;;;27.14;54.20;100606.38;5076136;28;20052;-76
2022/06/24 01:26:40;;;;;;;10.75;4.68;;;;;;;27.14;54.27;100603.66;5077336;28;20044;-76
2022/06/24 01:29:15;;;;;;;14.63;4.68;;;;;;;27.15;54.35;100604.53;5076966;28;20052;-77
2022/06/24 01:31:45;;;;;;;11.82;5.32;;;;;;;27.15;54.45;100601.81;5076625;28;20044;-74
2022/06/24 01:34:12;;;;;;;12.30;4.75;;;;;;;27.16;54.36;100595.34;5075957;28;20040;-74
2022/06/24 01:36:40;;;;;;;9.20;4.68;;;;;;;27.16;54.40;100603.50;5058461;28;20063;-74
2022/06/24 01:39:10;;;;;;;14.60;4.70;;;;;;;27.17;54.16;100591.59;5075968;28;20056;-75
2022/06/24 01:41:38;;;;;;;15.10;4.90;;;;;;;27.16;54.10;100593.47;5076897;28;20510;-77
2022/06/24 01:44:05;;;;;;;11.50;5.18;;;;;;;27.17;54.18;100603.28;5076446;28;20041;-77
2022/06/24 01:46:33;;;;;;;10.65;4.97;;;;;;;27.18;54.22;100604.13;5076422;28;20063;-77
2022/06/24 01:49:00;;;;;;;12.15;5.25;;;;;;;27.19;54.09;100603.97;5076696;28;20488;-77
2022/06/24 01:51:28;;;;;;;13.07;5.05;;;;;;;27.17;54.21;100599.75;5077507;28;20055;-77
2022/06/24 01:53:55;;;;;;;10.32;4.72;;;;;;;27.19;54.49;100600.41;5076791;28;20049;-78
2022/06/24 01:56:23;;;;;;;13.20;5.03;;;;;;;27.19;54.27;100594.97;5075431;28;20051;-77
2022/06/24 01:58:50;;;;;;;11.10;5.43;;;;;;;27.17;54.47;100595.16;5074321;28;20048;-77
2022/06/24 02:01:19;;;;;;;13.40;5.07;;;;;;;27.19;54.18;100594.97;5076900;28;20051;-75
2022/06/24 02:03:47;;;;;;;10.10;4.95;;;;;;;27.19;54.29;100587.66;5076589;28;20040;-75
2022/06/24 02:06:14;;;;;;;8.52;4.65;;;;;;;27.20;54.17;100589.34;5076960;28;20460;-75
2022/06/24 02:08:42;;;;;;;8.60;5.10;;;;;;;27.20;54.47;100588.50;5075484;28;20075;-75
2022/06/24 02:14:00;;;;;;;11.73;4.65;;;;;;;27.21;54.32;100587.47;5076081;28;20045;-76
2022/06/24 02:16:27;;;;;;;10.13;4.70;;;;;;;27.20;54.28;100597.50;5075621;28;20499;-76
2022/06/24 02:18:55;;;;;;;13.30;5.00;;;;;;;27.22;54.51;100597.28;5075477;28;20047;-76
2022/06/24 02:21:24;;;;;;;13.95;5.18;;;;;;;27.22;54.46;100594.56;5074748;28;20051;-76
2022/06/24 02:23:53;;;;;;;10.93;5.72;;;;;;;27.21;54.13;100590.19;5075119;28;20044;-76
2022/06/24 02:26:22;;;;;;;13.10;5.75;;;;;;;27.20;54.21;100594.78;5075159;28;20048;-76
2022/06/24 02:28:53;;;;;;;10.80;4.75;;;;;;;27.20;54.40;100597.50;5076079;28;20056;-76
2022/06/24 02:31:21;;;;;;;10.73;4.38;;;;;;;27.21;54.39;100592.91;5075504;28;20044;-76
2022/06/24 02:33:49;;;;;;;9.82;5.13;;;;;;;27.21;54.50;100592.91;5075056;28;20052;-76
2022/06/24 02:36:18;;;;;;;8.95;4.70;;;;;;;27.20;54.05;100602.94;5075375;28;20051;-76
2022/06/24 02:38:48;;;;;;;10.50;5.10;;;;;;;27.21;54.11;100604.59;5074057;28;20047;-76
2022/06/24 02:41:15;;;;;;;10.10;5.15;;;;;;;27.23;54.27;100609.88;5073821;28;20048;-76
2022/06/24 02:43:46;;;;;;;15.48;4.95;;;;;;;27.22;54.05;100610.88;5075044;28;20518;-76
2022/06/24 02:46:17;;;;;;;12.75;4.78;;;;;;;27.21;54.24;100607.31;5072952;28;20488;-76
2022/06/24 02:48:46;;;;;;;11.45;5.15;;;;;;;27.21;54.37;100607.31;5074418;28;20048;-76
2022/06/24 02:51:14;;;;;;;8.63;5.63;;;;;;;27.22;54.46;100594.56;5075860;28;20044;-76
2022/06/24 02:53:43;;;;;;;15.00;5.07;;;;;;;27.22;54.07;100600.84;5074860;28;20051;-76
2022/06/24 02:56:13;;;;;;;9.85;5.07;;;;;;;27.22;54.25;100589.13;5075148;28;20048;-74
2022/06/24 02:58:41;;;;;;;8.98;4.60;;;;;;;27.23;54.02;100596.28;5074478;28;20044;-74
2022/06/24 03:01:10;;;;;;;11.30;4.75;;;;;;;27.21;54.25;100599.16;5072745;28;20052;-75
2022/06/24 03:03:38;;;;;;;9.48;4.80;;;;;;;27.22;54.08;100592.69;5074681;28;20037;-76
2022/06/24 03:06:06;;;;;;;11.95;4.85;;;;;;;27.21;54.07;100592.91;5073840;28;20040;-78
2022/06/24 03:08:34;;;;;;;9.75;4.95;;;;;;;27.23;54.01;100590.84;5075345;28;20040;-78
2022/06/24 03:11:02;;;;;;;19.85;6.22;;;;;;;27.20;53.10;100591.22;5074771;28;20048;-79
2022/06/24 03:13:30;;;;;;;13.80;6.22;;;;;;;27.13;52.43;100593.00;5075547;28;20051;-79
2022/06/24 03:15:57;;;;;;;16.40;5.50;;;;;;;27.05;52.06;100591.19;5075296;28;20037;-79
2022/06/24 03:18:24;;;;;;;23.20;6.93;;;;;;;26.97;52.17;100597.56;5075787;28;20476;-79
2022/06/24 03:20:52;;;;;;;18.27;6.03;;;;;;;26.87;52.12;100591.59;5075073;28;20044;-78
2022/06/24 03:23:19;;;;;;;17.35;5.72;;;;;;;26.85;52.54;100599.06;5074835;28;20055;-78
2022/06/24 03:25:46;;;;;;;13.27;6.25;;;;;;;26.80;52.09;100596.06;5075283;28;20380;-78
2022/06/24 03:28:14;;;;;;;15.65;6.18;;;;;;;26.72;52.26;100597.00;5073871;28;20041;-78
2022/06/24 03:30:41;;;;;;;16.65;6.28;;;;;;;26.69;52.26;100599.25;5074931;28;20055;-78
2022/06/24 03:33:09;;;;;;;13.88;6.30;;;;;;;26.67;52.20;100601.31;5075212;28;20044;-78
2022/06/24 03:35:36;;;;;;;13.65;6.40;;;;;;;26.68;52.35;100603.00;5073448;28;20048;-78
2022/06/24 03:38:04;;;;;;;13.25;5.82;;;;;;;26.69;52.60;100601.97;5073407;28;20049;-79
2022/06/24 03:40:31;;;;;;;18.13;6.38;;;;;;;26.69;52.38;100600.09;5075454;28;20049;-78
2022/06/24 03:42:59;;;;;;;13.80;5.38;;;;;;;26.72;52.38;100604.31;5074511;28;20036;-77
2022/06/24 03:45:26;;;;;;;15.15;6.30;;;;;;;26.73;52.38;100600.56;5074427;28;20040;-77
2022/06/24 03:47:54;;;;;;;11.95;6.40;;;;;;;26.74;52.26;100602.22;5074160;28;20052;-77
2022/06/24 03:50:21;;;;;;;17.40;6.15;;;;;;;26.72;52.33;100605.16;5075148;28;20384;-77
2022/06/24 03:52:48;;;;;;;18.27;6.32;;;;;;;26.72;52.15;100607.88;5073798;28;20048;-77
2022/06/24 03:55:16;;;;;;;17.80;6.72;;;;;;;26.68;52.27;100605.72;5073934;28;20051;-77
2022/06/24 03:57:43;;;;;;;15.88;6.72;;;;;;;26.65;52.28;100616.94;5074585;28;20492;-77
2022/06/24 04:00:11;;;;;;;19.40;6.90;;;;;;;26.62;52.21;100608.16;5074637;28;20052;-77
2022/06/24 04:02:38;;;;;;;15.45;6.28;;;;;;;26.60;52.36;100609.34;5074786;28;20048;-78
2022/06/24 04:05:13;;;;;;;16.73;6.68;;;;;;;26.59;52.06;100608.50;5075315;28;20049;-78
2022/06/24 04:07:40;;;;;;;17.02;6.25;;;;;;;26.53;52.33;100606.53;5074182;28;20048;-77
2022/06/24 04:10:08;;;;;;;18.98;6.20;;;;;;;26.49;52.53;100598.94;5073061;28;20045;-78
2022/06/24 04:12:35;;;;;;;12.23;5.55;;;;;;;26.46;52.34;100593.91;5075183;28;20049;-78
2022/06/24 04:15:17;;;;;;;17.50;5.82;;;;;;;26.46;52.43;100586.59;5072905;28;20049;-77
2022/06/24 04:17:49;;;;;;;15.43;5.78;;;;;;;26.48;52.44;100591.81;5074504;28;20049;-78
2022/06/24 04:20:17;;;;;;;16.75;6.32;;;;;;;26.47;52.38;100587.44;5073829;28;20055;-78
2022/06/24 04:22:46;;;;;;;15.85;6.00;;;;;;;26.46;52.53;100586.59;5074471;28;20048;-77
2022/06/24 04:25:13;;;;;;;13.23;6.13;;;;;;;26.49;52.70;100582.66;5072814;28;20053;-78
2022/06/24 04:27:41;;;;;;;18.20;6.35;;;;;;;26.50;52.78;100590.63;5074706;28;20048;-79
2022/06/24 04:30:10;;;;;;;11.20;5.72;;;;;;;26.54;52.45;100593.81;5072880;28;20067;-78
2022/06/24 04:32:40;;;;;;;14.63;5.78;;;;;;;26.55;52.67;100598.22;5072943;28;20052;-78
2022/06/24 04:35:08;;;;;;;12.88;5.60;;;;;;;26.56;52.79;100603.44;5074483;28;20480;-79
2022/06/24 04:37:38;;;;;;;17.50;6.40;;;;;;;26.53;52.59;100603.81;5073714;28;20514;-77
2022/06/24 04:40:14;;;;;;;17.10;6.80;;;;;;;26.48;52.70;100598.09;5072563;28;20087;-77
2022/06/24 04:42:45;;;;;;;15.02;6.28;;;;;;;26.47;52.51;100598.28;5072854;28;20484;-78
2022/06/24 04:45:12;;;;;;;17.55;6.70;;;;;;;26.43;52.64;100610.50;5074316;28;20055;-79
2022/06/24 04:47:40;;;;;;;15.80;6.28;;;;;;;26.39;52.71;100610.03;5073692;28;20056;-79
2022/06/24 04:50:08;;;;;;;13.15;5.63;;;;;;;26.35;52.96;100612.28;5077909;28;20052;-79
2022/06/24 04:52:38;;;;;;;22.80;6.32;;;;;;;26.33;53.12;100610.75;5079144;28;20045;-79
2022/06/24 04:55:06;;;;;;;17.98;6.70;;;;;;;26.31;53.23;100624.53;5077539;28;20048;-79
2022/06/24 04:57:34;;;;;;;18.08;6.78;;;;;;;26.30;53.11;100625.56;5078558;28;20047;-79
2022/06/24 05:00:04;;;;;;;13.43;6.50;;;;;;;26.29;53.25;100631.16;5078511;28;20057;-79
2022/06/24 05:02:31;;;;;;;14.05;6.13;;;;;;;26.29;53.37;100633.84;5077879;28;20052;-79
2022/06/24 05:04:59;;;;;;;13.07;5.93;;;;;;;26.31;53.34;100639.97;5077240;28;20048;-80
2022/06/24 05:07:26;;;;;;;15.88;5.53;;;;;;;26.32;53.55;100638.94;5076726;28;20044;-79
2022/06/24 05:09:54;;;;;;;14.65;6.25;;;;;;;26.32;53.62;100630.78;5077692;28;20052;-78
2022/06/24 05:12:21;;;;;;;14.27;6.28;;;;;;;26.32;53.69;100623.47;5078717;28;20048;-78
2022/06/24 05:14:48;;;;;;;13.63;6.35;;;;;;;26.32;53.86;100619.94;5077749;28;20052;-79
2022/06/24 05:17:22;;;;;;;14.70;5.80;;;;;;;26.29;53.99;100626.59;5077455;28;20381;-77
2022/06/24 05:19:51;;;;;;;11.63;5.35;;;;;;;26.30;54.00;100624.72;5076427;28;20059;-77
2022/06/24 05:22:19;;;;;;;14.13;5.78;;;;;;;26.32;54.01;100615.34;5075464;28;20060;-78
2022/06/24 05:24:46;;;;;;;12.18;6.38;;;;;;;26.35;54.24;100627.72;5077028;28;20040;-77
2022/06/24 05:27:13;;;;;;;12.80;5.32;;;;;;;26.39;54.20;100626.31;5077234;28;20044;-78
2022/06/24 05:29:41;;;;;;;14.43;6.38;;;;;;;26.40;54.21;100633.44;5076909;28;20044;-77
2022/06/24 05:32:08;;;;;;;12.27;5.80;;;;;;;26.41;54.52;100645.97;5077515;28;20052;-78
2022/06/24 05:34:36;;;;;;;13.38;6.30;;;;;;;26.44;54.26;100644.78;5077629;28;20048;-77
2022/06/24 05:37:03;;;;;;;16.98;5.97;;;;;;;26.46;54.48;100634.63;5075670;28;20400;-77
2022/06/24 05:39:31;;;;;;;13.43;6.25;;;;;;;26.47;54.24;100630.88;5076613;28;20506;-78
2022/06/24 05:41:58;;;;;;;17.23;5.53;;;;;;;26.48;53.98;100630.66;5075909;28;20044;-78
2022/06/24 05:44:26;;;;;;;12.10;5.97;;;;;;;26.49;54.34;100634.22;5075315;28;20052;-78
2022/06/24 05:46:54;;;;;;;11.40;5.55;;;;;;;26.49;54.48;100632.34;5074172;28;20499;-78
2022/06/24 05:49:22;;;;;;;16.45;6.15;;;;;;;26.50;54.59;100634.06;5077219;28;20055;-78
2022/06/24 05:51:49;;;;;;;12.52;5.80;;;;;;;26.48;54.76;100649.69;5075796;28;20055;-78
2022/06/24 05:57:03;;;;;;;11.25;5.15;;;;;;;26.45;54.73;100652.75;5076131;28;20392;-75
2022/06/24 05:59:30;;;;;;;13.30;5.40;;;;;;;26.45;54.60;100650.03;5075406;28;20048;-75
2022/06/24 06:01:58;;;;;;;14.30;5.60;;;;;;;26.45;54.35;100658.19;5076167;28;20041;-76
2022/06/24 06:04:25;;;;;;;15.15;5.95;;;;;;;26.44;54.80;100648.31;5074782;28;20064;-75
2022/06/24 06:06:53;;;;;;;15.05;5.75;;;;;;;26.44;54.70;100645.59;5075899;28;20147;-75
2022/06/24 06:09:20;;;;;;;13.98;5.72;;;;;;;26.46;54.87;100649.03;5076254;28;20111;-76
2022/06/24 06:11:47;;;;;;;14.48;5.63;;;;;;;26.47;54.83;100645.28;5057367;28;20372;-76
2022/06/24 06:14:15;;;;;;;12.70;4.95;;;;;;;26.49;54.72;100639.66;5075742;28;20040;-76
2022/06/24 06:16:42;;;;;;;13.85;5.40;;;;;;;26.50;54.44;100642.22;5074027;28;20044;-76
2022/06/24 06:19:09;;;;;;;15.65;5.72;;;;;;;26.49;53.91;100637.78;5075066;28;20376;-76
2022/06/24 06:21:37;;;;;;;16.48;5.10;;;;;;;26.48;53.64;100630.66;5076271;28;20052;-77
2022/06/24 06:24:04;;;;;;;16.20;5.10;;;;;;;26.49;53.82;100626.91;5075173;28;20342;-77
2022/06/24 06:26:32;;;;;;;14.75;5.72;;;;;;;26.50;53.98;100627.78;5075455;28;20036;-79
2022/06/24 06:28:59;;;;;;;14.25;5.13;;;;;;;26.49;53.59;100621.50;5076004;28;20466;-79
2022/06/24 06:31:26;;;;;;;13.30;5.20;;;;;;;26.50;53.58;100619.66;5075956;28;20048;-77
2022/06/24 06:33:54;;;;;;;16.38;5.20;;;;;;;26.52;53.71;100623.84;5075977;28;20052;-82
2022/06/24 06:36:21;;;;;;;15.90;4.63;;;;;;;26.54;53.83;100626.41;5074302;28;20048;-76
2022/06/24 06:38:48;;;;;;;13.70;5.10;;;;;;;26.54;53.20;100615.53;5075331;28;20048;-77
2022/06/24 06:41:19;;;;;;;15.38;5.18;;;;;;;26.53;53.19;100606.53;5075525;28;20055;-76
2022/06/24 06:43:47;;;;;;;11.32;5.22;;;;;;;26.53;53.03;100601.09;5075090;28;20064;-76
2022/06/24 06:46:15;;;;;;;14.98;5.40;;;;;;;26.53;53.46;100603.81;5074360;28;20063;-75
2022/06/24 06:48:42;;;;;;;14.25;5.28;;;;;;;26.53;53.60;100605.69;5075425;28;20047;-77
2022/06/24 06:51:09;;;;;;;16.98;5.20;;;;;;;26.54;53.87;100610.94;5075024;28;20052;-75
2022/06/24 06:53:37;;;;;;;19.40;5.95;;;;;;;26.54;53.35;100601.97;5074733;28;20051;-75
2022/06/24 06:56:05;;;;;;;11.13;4.60;;;;;;;26.56;53.11;100605.31;5073984;28;20062;-75
2022/06/24 06:58:32;;;;;;;17.70;5.70;;;;;;;26.58;53.08;100614.97;5071982;28;20049;-75
2022/06/24 07:01:00;;;;;;;17.02;5.22;;;;;;;26.59;53.31;100621.25;5073851;28;20051;-76
2022/06/24 07:03:28;;;;;;;15.15;5.20;;;;;;;26.61;52.47;100620.00;5074205;28;20049;-76
2022/06/24 07:05:55;;;;;;;18.00;5.97;;;;;;;26.64;52.82;100629.69;5056819;28;20049;-77
2022/06/24 07:08:23;;;;;;;13.10;5.68;;;;;;;26.66;52.81;100633.06;5074423;28;20052;-78
2022/06/24 07:10:51;;;;;;;14.55;5.07;;;;;;;26.67;52.20;100634.75;5074555;28;20051;-77
2022/06/24 07:13:19;;;;;;;15.13;5.00;;;;;;;26.70;52.00;100634.38;5073466;28;20040;-76
2022/06/24 07:15:47;;;;;;;14.13;5.15;;;;;;;26.72;52.35;100626.88;5072584;28;20051;-76
2022/06/24 07:18:15;;;;;;;9.70;5.03;;;;;;;26.75;52.49;100628.38;5074294;28;20051;-76
2022/06/24 07:20:43;;;;;;;17.55;5.72;;;;;;;26.78;52.33;100631.59;5073096;28;20075;-76
2022/06/24 07:23:11;;;;;;;14.63;4.30;;;;;;;26.80;52.52;100639.53;5074195;28;20052;-76
2022/06/24 07:25:39;;;;;;;16.77;4.82;;;;;;;26.80;52.56;100637.66;5073690;28;20048;-76
2022/06/24 07:28:06;;;;;;;17.23;4.95;;;;;;;26.82;52.42;100643.75;5072755;28;20492;-76
2022/06/24 07:30:34;;;;;;;13.60;4.90;;;;;;;26.83;51.56;100634.56;5074385;28;20052;-76
2022/06/24 07:33:01;;;;;;;17.60;5.35;;;;;;;26.84;51.72;100636.25;5074265;28;20408;-75
2022/06/24 07:35:28;;;;;;;16.20;4.72;;;;;;;26.87;51.77;100629.63;5072733;28;20056;-75
2022/06/24 07:38:16;;;;;;;18.45;4.78;;;;;;;26.88;51.66;100629.41;5052793;28;20045;-75
2022/06/24 07:40:44;;;;;;;16.65;5.22;;;;;;;26.91;51.47;100619.22;5053243;28;20060;-75
2022/06/24 07:43:11;;;;;;;17.38;4.68;;;;;;;26.92;51.43;100627.16;5053976;28;20044;-75
2022/06/24 07:45:39;;;;;;;9.85;4.70;;;;;;;26.94;51.67;100621.53;5053781;28;20056;-76
2022/06/24 07:48:06;;;;;;;11.73;4.25;;;;;;;26.95;51.79;100623.25;5053891;28;20045;-75
2022/06/24 07:50:35;;;;;;;10.95;5.10;;;;;;;26.96;52.00;100619.50;5053688;28;20048;-75
2022/06/24 07:53:02;;;;;;;15.32;4.72;;;;;;;26.97;51.97;100608.44;5053544;28;20052;-75
2022/06/24 07:58:16;;;;;;;10.50;4.53;;;;;;;26.98;52.32;100604.72;5053721;28;20041;-76
2022/06/24 08:00:43;;;;;;;10.68;4.82;;;;;;;27.00;52.36;100607.22;5053941;28;20397;-76
2022/06/24 08:03:11;;;;;;;18.30;5.80;;;;;;;27.00;52.30;100591.75;5054018;28;20041;-76
2022/06/24 08:05:39;;;;;;;14.13;5.45;;;;;;;27.01;52.12;100598.88;5053688;28;20056;-76
2022/06/24 08:08:07;;;;;;;9.00;4.55;;;;;;;27.02;52.19;100592.44;5053521;28;20036;-76
2022/06/24 08:10:34;;;;;;;13.15;4.72;;;;;;;27.02;52.14;100592.44;5053250;28;20056;-76
2022/06/24 08:13:02;;;;;;;8.30;4.75;;;;;;;27.04;52.00;100589.50;5052914;28;20511;-76
2022/06/24 08:15:29;;;;;;;9.35;4.38;;;;;;;27.03;50.78;100583.25;5052984;28;20060;-76
2022/06/24 08:17:57;;;;;;;11.43;4.70;;;;;;;27.04;50.46;100581.34;5053541;28;20056;-76
2022/06/24 08:20:24;;;;;;;11.85;4.82;;;;;;;27.04;51.04;100573.22;5053806;28;20045;-76
2022/06/24 08:22:51;;;;;;;13.20;4.80;;;;;;;27.07;50.53;100583.72;5055393;28;20060;-75
2022/06/24 08:25:19;;;;;;;14.82;4.90;;;;;;;27.06;50.17;100574.72;5056688;28;20060;-76
2022/06/24 08:27:50;;;;;;;9.85;4.43;;;;;;;27.07;50.25;100570.97;5057976;28;20064;-77
2022/06/24 08:30:17;;;;;;;10.00;4.30;;;;;;;27.08;50.27;100574.53;5056510;28;20040;-76
2022/06/24 08:32:44;;;;;;;12.20;4.38;;;;;;;27.09;50.24;100565.31;5057009;28;20511;-75
2022/06/24 08:35:12;;;;;;;13.45;4.22;;;;;;;27.12;48.77;100570.41;5057270;28;20049;-75
2022/06/24 08:37:55;;;;;;;;;;;;;;;27.14;48.65;100565.63;5057514;28;20041;-75
2022/06/24 08:40:25;;;;;;;12.48;5.13;;;;;;;27.16;49.13;100557.31;5056581;28;19921;-75
2022/06/24 08:42:54;;;;;;;14.55;4.15;;;;;;;27.16;49.40;100562.72;5057462;28;20045;-75
2022/06/24 08:45:23;;;;;;;12.25;4.13;;;;;;;27.16;49.59;100560.00;5056884;28;20060;-74
2022/06/24 08:47:51;;;;;;;15.93;4.78;;;;;;;27.17;49.37;100569.84;5056469;28;20053;-75
2022/06/24 08:50:19;;;;;;;12.77;4.45;;;;;;;27.16;49.41;100573.59;5055331;28;20060;-75
2022/06/24 08:52:50;;;;;;;11.73;3.72;;;;;;;27.16;49.08;100563.56;5056756;28;20053;-75
2022/06/24 08:55:23;;;;;;;9.65;3.83;;;;;;;27.17;49.60;100569.84;5055555;28;20045;-75
2022/06/24 08:57:50;;;;;;;14.05;4.18;;;;;;;27.17;49.32;100569.84;5056737;28;20044;-75
2022/06/24 09:00:18;;;;;;;12.45;3.65;;;;;;;27.16;49.65;100574.44;5056946;28;20481;-74
2022/06/24 09:02:48;;;;;;;8.02;3.65;;;;;;;27.16;49.72;100573.59;5057019;28;20056;-75
2022/06/24 09:05:16;;;;;;;10.65;4.03;;;;;;;27.17;49.76;100573.41;5056654;28;20059;-75
2022/06/24 09:07:46;;;;;;;9.75;4.15;;;;;;;27.16;50.02;100577.16;5056963;28;20041;-75
2022/06/24 09:10:14;;;;;;;11.43;4.25;;;;;;;27.18;49.88;100569.66;5056067;28;20049;-75
2022/06/24 09:12:45;;;;;;;8.50;3.90;;;;;;;27.17;49.58;100565.25;5054707;28;20412;-75
2022/06/24 09:15:14;;;;;;;10.98;4.95;;;;;;;27.18;49.08;100561.50;5056283;28;20089;-75
2022/06/24 09:17:43;;;;;;;9.13;3.70;;;;;;;27.19;49.12;100556.94;5056082;28;20057;-75
2022/06/24 09:20:13;;;;;;;10.35;3.72;;;;;;;27.18;49.09;100561.50;5055544;28;20048;-76
2022/06/24 09:23:07;;;;;;;9.52;4.03;;;;;;;27.19;48.84;100570.50;5055314;28;20045;-76
2022/06/24 09:25:45;;;;;;;11.45;4.25;;;;;;;27.20;48.26;100564.03;5056045;28;20068;-75
2022/06/24 09:28:27;;;;;;;10.52;3.75;;;;;;;27.21;48.57;100579.31;5056636;28;20401;-75
2022/06/24 09:31:08;;;;;;;11.40;4.25;;;;;;;27.22;48.58;100580.97;5056310;28;20052;-75
2022/06/24 09:33:38;;;;;;;12.77;4.10;;;;;;;27.22;48.26;100572.81;5054168;28;20061;-75
2022/06/24 09:36:08;;;;;;;9.25;4.13;;;;;;;27.22;48.23;100572.81;5055753;28;20052;-76
2022/06/24 09:38:55;;;;;;;11.52;4.63;;;;;;;27.23;48.61;100569.94;5056335;28;20037;-75
2022/06/24 09:41:26;;;;;;;11.45;4.05;;;;;;;27.24;48.64;100574.34;5055049;28;20060;-75
2022/06/24 09:43:57;;;;;;;8.60;3.60;;;;;;;27.25;48.85;100564.31;5055147;28;20048;-75
2022/06/24 09:46:25;;;;;;;11.38;4.05;;;;;;;27.25;48.39;100564.31;5055948;28;20060;-75
2022/06/24 09:49:03;;;;;;;8.80;3.80;;;;;;;27.26;48.36;100563.25;5056179;28;20045;-75
2022/06/24 09:51:31;;;;;;;11.93;4.13;;;;;;;27.26;48.25;100558.66;5056166;28;20511;-75
2022/06/24 09:53:59;;;;;;;7.15;3.88;;;;;;;27.26;47.91;100544.25;5055870;28;20052;-75
2022/06/24 09:56:27;;;;;;;13.77;4.55;;;;;;;27.26;47.86;100539.63;5055917;28;20056;-75
2022/06/24 10:01:42;;;;;;;14.15;3.88;;;;;;;27.31;45.27;100528.22;5056020;28;20064;-75
2022/06/24 10:04:14;;;;;;;13.80;3.95;;;;;;;27.35;45.19;100530.34;5055102;28;20045;-75
2022/06/24 10:06:45;;;;;;;15.73;3.70;;;;;;;27.41;43.52;100534.16;5056187;28;20072;-75
2022/06/24 10:09:13;;;;;;;12.15;3.47;;;;;;;27.47;43.77;100533.41;5054321;28;20068;-75
2022/06/24 10:11:42;;;;;;;12.02;4.05;;;;;;;27.52;43.76;100541.00;5054017;28;20049;-75
2022/06/24 10:14:12;;;;;;;10.07;3.60;;;;;;;27.56;43.43;100545.00;5055611;28;20052;-75
2022/06/24 10:16:42;;;;;;;6.55;2.95;;;;;;;27.59;42.44;100540.03;5054263;28;20045;-75
2022/06/24 10:19:12;;;;;;;9.00;3.45;;;;;;;27.66;41.85;100541.97;5054496;28;20053;-75
2022/06/24 10:21:48;;;;;;;11.95;3.90;;;;;;;27.72;42.49;100527.59;5055160;28;20052;-75
2022/06/24 10:24:17;;;;;;;8.85;3.75;;;;;;;27.75;42.94;100538.97;5055363;28;20404;-75
2022/06/24 10:26:47;;;;;;;7.15;3.13;;;;;;;27.74;43.44;100539.13;5055055;28;20045;-75
2022/06/24 10:29:14;;;;;;;6.03;2.70;;;;;;;27.73;42.34;100537.44;5053787;28;20045;-75
2022/06/24 10:31:41;;;;;;;5.80;2.50;;;;;;;27.71;41.26;100540.34;5054876;28;20068;-75
2022/06/24 10:34:20;;;;;;;8.00;2.88;;;;;;;27.69;41.25;100526.09;5055506;28;20048;-76
2022/06/24 10:36:57;;;;;;;5.13;2.22;;;;;;;27.67;40.93;100541.78;5053463;28;20053;-76
2022/06/24 10:39:30;;;;;;;5.80;2.20;;;;;;;27.71;36.92;100532.19;5054978;28;20392;-75
2022/06/24 10:42:08;;;;;;;6.78;2.60;;;;;;;27.77;37.85;100533.31;5053952;28;20056;-75
2022/06/24 10:44:38;;;;;;;6.88;2.13;;;;;;;27.78;38.83;100524.13;5054314;28;20049;-75
2022/06/24 10:47:05;;;;;;;6.70;2.33;;;;;;;27.76;39.32;100520.75;5053983;28;20053;-75
2022/06/24 10:50:01;;;;;;;5.43;2.10;;;;;;;27.73;40.10;100519.25;5054040;28;20041;-75
2022/06/24 10:52:46;;;;;;;5.55;2.00;;;;;;;27.73;40.19;100521.13;5053579;28;20056;-75
2022/06/24 10:57:48;;;;;;;6.05;2.15;;;;;;;27.70;38.49;100525.06;5053777;28;20412;-75
2022/06/24 11:00:18;;;;;;;6.05;2.05;;;;;;;27.69;39.30;100520.66;5052796;28;20512;-75
2022/06/24 11:02:47;;;;;;;4.88;2.28;;;;;;;27.70;39.01;100525.06;5053751;28;20040;-75
2022/06/24 11:05:26;;;;;;;5.82;2.42;;;;;;;27.71;37.38;100517.72;5054096;28;20052;-75
2022/06/24 11:07:53;;;;;;;5.85;2.08;;;;;;;27.74;38.10;100518.22;5053296;28;20430;-74
2022/06/24 11:10:29;;;;;;;6.28;2.63;;;;;;;27.75;38.49;100519.06;5053186;28;20048;-75
2022/06/24 11:13:01;;;;;;;6.45;2.25;;;;;;;27.77;37.75;100528.72;5052480;28;20057;-75
2022/06/24 11:15:39;;;;;;;4.35;2.05;;;;;;;27.79;37.64;100520.34;5053771;28;20488;-75
2022/06/24 11:18:15;;;;;;;6.28;2.22;;;;;;;27.86;35.66;100510.38;5052915;28;20049;-75
2022/06/24 11:21:04;;;;;;;5.43;2.50;;;;;;;27.93;37.72;100508.56;5053290;28;20485;-75
2022/06/24 11:23:33;;;;;;;6.35;2.10;;;;;;;27.91;37.85;100502.44;5053475;28;20068;-75
2022/06/24 11:26:05;;;;;;;3.78;1.98;;;;;;;27.91;38.37;100496.19;5053222;28;20049;-75
2022/06/24 11:28:35;;;;;;;5.45;2.00;;;;;;;27.87;38.86;100506.59;5052279;28;20045;-77
2022/06/24 11:31:28;;;;;;;6.30;2.03;;;;;;;27.84;38.54;100490.69;5051834;28;20045;-75
2022/06/24 11:33:58;;;;;;;7.35;2.47;;;;;;;27.84;39.46;100510.59;5053819;28;20067;-75
2022/06/24 11:36:27;;;;;;;5.72;2.08;;;;;;;27.82;39.67;100509.09;5052507;28;20056;-75
2022/06/24 11:38:57;;;;;;;4.28;1.83;;;;;;;27.80;39.53;100501.13;5053452;28;20082;-75
2022/06/24 11:41:46;;;;;;;5.28;2.15;;;;;;;28.01;37.55;100502.13;5052425;28;20049;-75
2022/06/24 11:44:37;;;;;;;5.88;1.98;;;;;;;28.00;38.64;100495.03;5053318;28;20049;-75